Terminal Aerodrome Forecast
Issued by NWS Spokane, WA

Home | Current Version | Previous Version | Text Only | Print | Product List | Glossary On
Versions: 1 2 3 4 5 6 7 8 9 10 11 12 13 14
000
FTUS46 KOTX 242320
TAFGEG
TAF
KGEG 242320Z 2500/2524 24007KT P6SM FEW050 SCT200
     FM250400 20005KT P6SM SCT150
     FM250800 15005KT P6SM FEW090 BKN120
     FM251700 19007KT P6SM SCT150=

USA.gov is the U.S. government's official web portal to all federal, state and local government web resources and services.